sensor_id;sensor_type;location;lat;lon;timestamp;temperature;humidity
18805;DHT22;9530;48.930;9.526;2022-08-19T00:00:35;19.80;99.90
18805;DHT22;9530;48.930;9.526;2022-08-19T00:03:02;19.70;99.90
18805;DHT22;9530;48.930;9.526;2022-08-19T00:05:28;19.70;99.90
18805;DHT22;9530;48.930;9.526;2022-08-19T00:07:55;19.70;99.90
18805;DHT22;9530;48.930;9.526;2022-08-19T00:10:22;19.80;99.90
18805;DHT22;9530;48.930;9.526;2022-08-19T00:12:49;19.70;99.90
18805;DHT22;9530;48.930;9.526;2022-08-19T00:15:20;19.70;99.90
18805;DHT22;9530;48.930;9.526;2022-08-19T00:17:48;19.70;99.90
18805;DHT22;9530;48.930;9.526;2022-08-19T00:20:18;19.70;99.90
18805;DHT22;9530;48.930;9.526;2022-08-19T00:22:45;19.60;99.90
18805;DHT22;9530;48.930;9.526;2022-08-19T00:25:13;19.70;99.90
18805;DHT22;9530;48.930;9.526;2022-08-19T00:27:40;19.60;99.90
18805;DHT22;9530;48.930;9.526;2022-08-19T00:30:08;19.70;99.90
18805;DHT22;9530;48.930;9.526;2022-08-19T00:32:37;19.70;99.90
18805;DHT22;9530;48.930;9.526;2022-08-19T00:35:05;19.70;99.90
18805;DHT22;9530;48.930;9.526;2022-08-19T00:37:32;19.70;99.90
18805;DHT22;9530;48.930;9.526;2022-08-19T00:40:00;19.70;99.90
18805;DHT22;9530;48.930;9.526;2022-08-19T00:42:28;19.70;99.90
18805;DHT22;9530;48.930;9.526;2022-08-19T00:44:54;19.70;99.90
18805;DHT22;9530;48.930;9.526;2022-08-19T00:47:21;19.70;99.90
18805;DHT22;9530;48.930;9.526;2022-08-19T00:49:51;19.70;99.90
18805;DHT22;9530;48.930;9.526;2022-08-19T00:52:22;19.70;99.90
18805;DHT22;9530;48.930;9.526;2022-08-19T00:54:51;19.60;99.90
18805;DHT22;9530;48.930;9.526;2022-08-19T00:57:23;19.70;99.90
18805;DHT22;9530;48.930;9.526;2022-08-19T00:59:52;19.70;99.90
18805;DHT22;9530;48.930;9.526;2022-08-19T01:02:20;19.60;99.90
18805;DHT22;9530;48.930;9.526;2022-08-19T01:04:47;19.60;99.90
18805;DHT22;9530;48.930;9.526;2022-08-19T01:07:15;19.60;99.90
18805;DHT22;9530;48.930;9.526;2022-08-19T01:09:42;19.60;99.90
18805;DHT22;9530;48.930;9.526;2022-08-19T01:12:08;19.60;99.90
18805;DHT22;9530;48.930;9.526;2022-08-19T01:14:36;19.60;99.90
18805;DHT22;9530;48.930;9.526;2022-08-19T01:17:03;19.60;99.90
18805;DHT22;9530;48.930;9.526;2022-08-19T01:19:33;19.50;99.90
18805;DHT22;9530;48.930;9.526;2022-08-19T01:22:03;19.50;99.90
18805;DHT22;9530;48.930;9.526;2022-08-19T01:24:33;19.50;99.90
18805;DHT22;9530;48.930;9.526;2022-08-19T01:27:03;19.50;99.90
18805;DHT22;9530;48.930;9.526;2022-08-19T01:29:30;19.50;99.90
18805;DHT22;9530;48.930;9.526;2022-08-19T01:31:57;19.50;99.90
18805;DHT22;9530;48.930;9.526;2022-08-19T01:34:24;19.40;99.90
18805;DHT22;9530;48.930;9.526;2022-08-19T01:36:51;19.50;99.90
18805;DHT22;9530;48.930;9.526;2022-08-19T01:39:21;19.40;99.90
18805;DHT22;9530;48.930;9.526;2022-08-19T01:41:50;19.40;99.90
18805;DHT22;9530;48.930;9.526;2022-08-19T01:44:16;19.30;99.90
18805;DHT22;9530;48.930;9.526;2022-08-19T01:46:47;19.40;99.90
18805;DHT22;9530;48.930;9.526;2022-08-19T01:49:15;19.30;99.90
18805;DHT22;9530;48.930;9.526;2022-08-19T01:51:42;19.30;99.90
18805;DHT22;9530;48.930;9.526;2022-08-19T01:54:10;19.30;99.90
18805;DHT22;9530;48.930;9.526;2022-08-19T01:56:39;19.30;99.90
18805;DHT22;9530;48.930;9.526;2022-08-19T01:59:11;19.30;99.90
18805;DHT22;9530;48.930;9.526;2022-08-19T02:01:38;19.30;99.90
18805;DHT22;9530;48.930;9.526;2022-08-19T02:04:05;19.20;99.90
18805;DHT22;9530;48.930;9.526;2022-08-19T02:06:32;19.20;99.90
18805;DHT22;9530;48.930;9.526;2022-08-19T02:08:58;19.30;99.90
18805;DHT22;9530;48.930;9.526;2022-08-19T02:11:28;19.20;99.90
18805;DHT22;9530;48.930;9.526;2022-08-19T02:13:57;19.20;99.90
18805;DHT22;9530;48.930;9.526;2022-08-19T02:16:25;19.20;99.90
18805;DHT22;9530;48.930;9.526;2022-08-19T02:18:52;19.20;99.90
18805;DHT22;9530;48.930;9.526;2022-08-19T02:21:20;19.20;99.90
18805;DHT22;9530;48.930;9.526;2022-08-19T02:23:48;19.20;99.90
18805;DHT22;9530;48.930;9.526;2022-08-19T02:26:15;19.10;99.90
18805;DHT22;9530;48.930;9.526;2022-08-19T02:28:42;19.00;99.90
18805;DHT22;9530;48.930;9.526;2022-08-19T02:31:10;19.00;99.90
18805;DHT22;9530;48.930;9.526;2022-08-19T02:33:38;19.00;99.90
18805;DHT22;9530;48.930;9.526;2022-08-19T02:36:07;19.00;99.90
18805;DHT22;9530;48.930;9.526;2022-08-19T02:38:34;19.00;99.90
18805;DHT22;9530;48.930;9.526;2022-08-19T02:41:02;19.00;99.90
18805;DHT22;9530;48.930;9.526;2022-08-19T02:43:31;19.00;99.90
18805;DHT22;9530;48.930;9.526;2022-08-19T02:46:11;19.00;99.90
18805;DHT22;9530;48.930;9.526;2022-08-19T02:48:39;19.10;99.90
18805;DHT22;9530;48.930;9.526;2022-08-19T02:51:06;19.10;99.90
18805;DHT22;9530;48.930;9.526;2022-08-19T02:53:33;19.10;99.90
18805;DHT22;9530;48.930;9.526;2022-08-19T02:56:00;19.10;99.90
18805;DHT22;9530;48.930;9.526;2022-08-19T02:58:27;19.10;99.90
18805;DHT22;9530;48.930;9.526;2022-08-19T03:00:55;19.10;99.90
18805;DHT22;9530;48.930;9.526;2022-08-19T03:03:22;19.10;99.90
18805;DHT22;9530;48.930;9.526;2022-08-19T03:05:51;19.10;99.90
18805;DHT22;9530;48.930;9.526;2022-08-19T03:08:18;19.00;99.90
18805;DHT22;9530;48.930;9.526;2022-08-19T03:10:47;19.10;99.90
18805;DHT22;9530;48.930;9.526;2022-08-19T03:13:15;19.00;99.90
18805;DHT22;9530;48.930;9.526;2022-08-19T03:15:43;19.00;99.90
18805;DHT22;9530;48.930;9.526;2022-08-19T03:18:10;19.00;99.90
18805;DHT22;9530;48.930;9.526;2022-08-19T03:20:41;19.10;99.90
18805;DHT22;9530;48.930;9.526;2022-08-19T03:23:09;19.00;99.90
18805;DHT22;9530;48.930;9.526;2022-08-19T03:25:39;19.00;99.90
18805;DHT22;9530;48.930;9.526;2022-08-19T03:28:09;18.90;99.90
18805;DHT22;9530;48.930;9.526;2022-08-19T03:30:37;18.90;99.90
18805;DHT22;9530;48.930;9.526;2022-08-19T03:33:04;18.80;99.90
18805;DHT22;9530;48.930;9.526;2022-08-19T03:35:31;18.80;99.90
18805;DHT22;9530;48.930;9.526;2022-08-19T03:37:58;18.80;99.90
18805;DHT22;9530;48.930;9.526;2022-08-19T03:40:26;18.80;99.90
18805;DHT22;9530;48.930;9.526;2022-08-19T03:42:55;18.80;99.90
18805;DHT22;9530;48.930;9.526;2022-08-19T03:45:22;18.60;99.90
18805;DHT22;9530;48.930;9.526;2022-08-19T03:47:48;18.70;99.90
18805;DHT22;9530;48.930;9.526;2022-08-19T03:50:15;18.70;99.90
18805;DHT22;9530;48.930;9.526;2022-08-19T03:52:48;18.60;99.90
18805;DHT22;9530;48.930;9.526;2022-08-19T03:55:15;18.60;99.90
18805;DHT22;9530;48.930;9.526;2022-08-19T03:57:43;18.60;99.90
18805;DHT22;9530;48.930;9.526;2022-08-19T04:00:15;18.60;99.90
18805;DHT22;9530;48.930;9.526;2022-08-19T04:02:42;18.60;99.90
18805;DHT22;9530;48.930;9.526;2022-08-19T04:05:09;18.50;99.90
18805;DHT22;9530;48.930;9.526;2022-08-19T04:07:35;18.50;99.90
18805;DHT22;9530;48.930;9.526;2022-08-19T04:10:03;18.50;99.90
18805;DHT22;9530;48.930;9.526;2022-08-19T04:12:30;18.50;99.90
18805;DHT22;9530;48.930;9.526;2022-08-19T04:14:58;18.40;99.90
18805;DHT22;9530;48.930;9.526;2022-08-19T04:17:25;18.40;99.90
18805;DHT22;9530;48.930;9.526;2022-08-19T04:19:52;18.40;99.90
18805;DHT22;9530;48.930;9.526;2022-08-19T04:22:18;18.40;99.90
18805;DHT22;9530;48.930;9.526;2022-08-19T04:24:45;18.50;99.90
18805;DHT22;9530;48.930;9.526;2022-08-19T04:27:12;18.50;99.90
18805;DHT22;9530;48.930;9.526;2022-08-19T04:29:38;18.50;99.90
18805;DHT22;9530;48.930;9.526;2022-08-19T04:32:07;18.50;99.90
18805;DHT22;9530;48.930;9.526;2022-08-19T04:34:34;18.50;99.90
18805;DHT22;9530;48.930;9.526;2022-08-19T04:37:01;18.60;99.90
18805;DHT22;9530;48.930;9.526;2022-08-19T04:39:30;18.60;99.90
18805;DHT22;9530;48.930;9.526;2022-08-19T04:42:11;18.60;99.90
18805;DHT22;9530;48.930;9.526;2022-08-19T04:44:55;18.60;99.90
18805;DHT22;9530;48.930;9.526;2022-08-19T04:47:23;18.60;99.90
18805;DHT22;9530;48.930;9.526;2022-08-19T04:49:49;18.60;99.90
18805;DHT22;9530;48.930;9.526;2022-08-19T04:52:16;18.60;99.90
18805;DHT22;9530;48.930;9.526;2022-08-19T04:54:43;18.60;99.90
18805;DHT22;9530;48.930;9.526;2022-08-19T04:57:09;18.60;99.90
18805;DHT22;9530;48.930;9.526;2022-08-19T04:59:37;18.60;99.90
18805;DHT22;9530;48.930;9.526;2022-08-19T05:02:04;18.70;99.90
18805;DHT22;9530;48.930;9.526;2022-08-19T05:04:32;18.60;99.90
18805;DHT22;9530;48.930;9.526;2022-08-19T05:06:59;18.70;99.90
18805;DHT22;9530;48.930;9.526;2022-08-19T05:09:27;18.70;99.90
18805;DHT22;9530;48.930;9.526;2022-08-19T05:11:53;18.70;99.90
18805;DHT22;9530;48.930;9.526;2022-08-19T05:14:20;18.80;99.90
18805;DHT22;9530;48.930;9.526;2022-08-19T05:16:47;18.80;99.90
18805;DHT22;9530;48.930;9.526;2022-08-19T05:19:14;18.80;99.90
18805;DHT22;9530;48.930;9.526;2022-08-19T05:22:00;18.80;99.90
18805;DHT22;9530;48.930;9.526;2022-08-19T05:24:45;18.90;99.90
18805;DHT22;9530;48.930;9.526;2022-08-19T05:27:11;18.90;99.90
18805;DHT22;9530;48.930;9.526;2022-08-19T05:29:39;18.90;99.90
18805;DHT22;9530;48.930;9.526;2022-08-19T05:32:06;18.90;99.90
18805;DHT22;9530;48.930;9.526;2022-08-19T05:34:34;18.90;99.90
18805;DHT22;9530;48.930;9.526;2022-08-19T05:37:03;18.90;99.90
18805;DHT22;9530;48.930;9.526;2022-08-19T05:39:32;18.90;99.90
18805;DHT22;9530;48.930;9.526;2022-08-19T05:42:00;18.90;99.90
18805;DHT22;9530;48.930;9.526;2022-08-19T05:44:31;18.90;99.90
18805;DHT22;9530;48.930;9.526;2022-08-19T05:46:59;18.90;99.90
18805;DHT22;9530;48.930;9.526;2022-08-19T05:49:28;18.90;99.90
18805;DHT22;9530;48.930;9.526;2022-08-19T05:51:55;18.90;99.90
18805;DHT22;9530;48.930;9.526;2022-08-19T05:54:23;18.90;99.90
18805;DHT22;9530;48.930;9.526;2022-08-19T05:56:51;18.90;99.90
18805;DHT22;9530;48.930;9.526;2022-08-19T05:59:19;19.00;99.90
18805;DHT22;9530;48.930;9.526;2022-08-19T06:01:48;19.00;99.90
18805;DHT22;9530;48.930;9.526;2022-08-19T06:04:16;19.00;99.90
18805;DHT22;9530;48.930;9.526;2022-08-19T06:06:44;19.00;99.90
18805;DHT22;9530;48.930;9.526;2022-08-19T06:09:10;19.00;99.90
18805;DHT22;9530;48.930;9.526;2022-08-19T06:11:40;19.10;99.90
18805;DHT22;9530;48.930;9.526;2022-08-19T06:14:10;19.20;99.90
18805;DHT22;9530;48.930;9.526;2022-08-19T06:16:38;19.20;99.90
18805;DHT22;9530;48.930;9.526;2022-08-19T06:19:07;19.20;99.90
18805;DHT22;9530;48.930;9.526;2022-08-19T06:21:36;19.30;99.90
18805;DHT22;9530;48.930;9.526;2022-08-19T06:24:04;19.30;99.90
18805;DHT22;9530;48.930;9.526;2022-08-19T06:26:32;19.40;99.90
18805;DHT22;9530;48.930;9.526;2022-08-19T06:29:01;19.50;99.90
18805;DHT22;9530;48.930;9.526;2022-08-19T06:31:29;19.60;99.90
18805;DHT22;9530;48.930;9.526;2022-08-19T06:33:59;19.70;99.90
18805;DHT22;9530;48.930;9.526;2022-08-19T06:36:29;19.80;99.90
18805;DHT22;9530;48.930;9.526;2022-08-19T06:39:00;19.90;99.90
18805;DHT22;9530;48.930;9.526;2022-08-19T06:41:27;20.00;99.90
18805;DHT22;9530;48.930;9.526;2022-08-19T06:43:54;20.20;99.90
18805;DHT22;9530;48.930;9.526;2022-08-19T06:46:22;20.30;99.90
18805;DHT22;9530;48.930;9.526;2022-08-19T06:48:49;20.50;99.90
18805;DHT22;9530;48.930;9.526;2022-08-19T06:51:19;20.80;99.90
18805;DHT22;9530;48.930;9.526;2022-08-19T06:53:45;20.80;99.90
18805;DHT22;9530;48.930;9.526;2022-08-19T06:56:13;21.20;99.90
18805;DHT22;9530;48.930;9.526;2022-08-19T06:58:40;21.10;99.90
18805;DHT22;9530;48.930;9.526;2022-08-19T07:01:07;21.00;99.90
18805;DHT22;9530;48.930;9.526;2022-08-19T07:03:36;21.20;99.90
18805;DHT22;9530;48.930;9.526;2022-08-19T07:06:05;21.20;99.90
18805;DHT22;9530;48.930;9.526;2022-08-19T07:08:34;21.10;99.90
18805;DHT22;9530;48.930;9.526;2022-08-19T07:11:02;21.10;99.90
18805;DHT22;9530;48.930;9.526;2022-08-19T07:13:28;20.90;99.90
18805;DHT22;9530;48.930;9.526;2022-08-19T07:15:57;20.80;99.90
18805;DHT22;9530;48.930;9.526;2022-08-19T07:18:24;20.70;99.90
18805;DHT22;9530;48.930;9.526;2022-08-19T07:21:02;20.70;99.90
18805;DHT22;9530;48.930;9.526;2022-08-19T07:23:29;20.60;99.90
18805;DHT22;9530;48.930;9.526;2022-08-19T07:25:56;20.40;99.90
18805;DHT22;9530;48.930;9.526;2022-08-19T07:28:23;20.50;99.90
18805;DHT22;9530;48.930;9.526;2022-08-19T07:30:50;20.50;99.90
18805;DHT22;9530;48.930;9.526;2022-08-19T07:33:16;20.40;99.90
18805;DHT22;9530;48.930;9.526;2022-08-19T07:35:44;20.40;99.90
18805;DHT22;9530;48.930;9.526;2022-08-19T07:38:12;20.40;99.90
18805;DHT22;9530;48.930;9.526;2022-08-19T07:40:40;20.40;99.90
18805;DHT22;9530;48.930;9.526;2022-08-19T07:43:08;20.40;99.90
18805;DHT22;9530;48.930;9.526;2022-08-19T07:45:35;20.40;99.90
18805;DHT22;9530;48.930;9.526;2022-08-19T07:48:02;20.40;99.90
18805;DHT22;9530;48.930;9.526;2022-08-19T07:50:30;20.40;99.90
18805;DHT22;9530;48.930;9.526;2022-08-19T07:52:56;20.50;99.90
18805;DHT22;9530;48.930;9.526;2022-08-19T07:55:25;20.50;99.90
18805;DHT22;9530;48.930;9.526;2022-08-19T07:57:52;20.70;99.90
18805;DHT22;9530;48.930;9.526;2022-08-19T08:00:19;20.70;99.90
18805;DHT22;9530;48.930;9.526;2022-08-19T08:02:46;20.80;99.90
18805;DHT22;9530;48.930;9.526;2022-08-19T08:05:13;20.80;99.90
18805;DHT22;9530;48.930;9.526;2022-08-19T08:08:12;20.80;99.90
18805;DHT22;9530;48.930;9.526;2022-08-19T08:10:57;20.90;99.90
18805;DHT22;9530;48.930;9.526;2022-08-19T08:13:25;20.90;99.90
18805;DHT22;9530;48.930;9.526;2022-08-19T08:15:51;20.90;99.90
18805;DHT22;9530;48.930;9.526;2022-08-19T08:18:18;20.80;99.90
18805;DHT22;9530;48.930;9.526;2022-08-19T08:20:46;20.70;99.90
18805;DHT22;9530;48.930;9.526;2022-08-19T08:23:13;20.90;99.90
18805;DHT22;9530;48.930;9.526;2022-08-19T08:25:51;20.80;99.90
18805;DHT22;9530;48.930;9.526;2022-08-19T08:28:19;20.70;99.90
18805;DHT22;9530;48.930;9.526;2022-08-19T08:30:47;20.70;99.90
18805;DHT22;9530;48.930;9.526;2022-08-19T08:33:16;20.60;99.90
18805;DHT22;9530;48.930;9.526;2022-08-19T08:35:43;20.80;99.90
18805;DHT22;9530;48.930;9.526;2022-08-19T08:38:11;20.80;99.90
18805;DHT22;9530;48.930;9.526;2022-08-19T08:40:42;20.90;99.90
18805;DHT22;9530;48.930;9.526;2022-08-19T08:43:17;21.00;99.90
18805;DHT22;9530;48.930;9.526;2022-08-19T08:45:54;21.10;99.90
18805;DHT22;9530;48.930;9.526;2022-08-19T08:48:24;21.20;99.90
18805;DHT22;9530;48.930;9.526;2022-08-19T08:50:57;21.30;99.90
18805;DHT22;9530;48.930;9.526;2022-08-19T08:53:25;21.40;99.90
18805;DHT22;9530;48.930;9.526;2022-08-19T08:55:53;21.30;99.90
18805;DHT22;9530;48.930;9.526;2022-08-19T08:58:26;21.40;99.90
18805;DHT22;9530;48.930;9.526;2022-08-19T09:00:57;21.50;99.90
18805;DHT22;9530;48.930;9.526;2022-08-19T09:03:26;21.50;99.90
18805;DHT22;9530;48.930;9.526;2022-08-19T09:05:59;21.40;99.90
18805;DHT22;9530;48.930;9.526;2022-08-19T09:08:36;21.40;99.90
18805;DHT22;9530;48.930;9.526;2022-08-19T09:11:08;21.40;99.90
18805;DHT22;9530;48.930;9.526;2022-08-19T09:13:44;21.40;99.90
18805;DHT22;9530;48.930;9.526;2022-08-19T09:16:16;21.50;99.90
18805;DHT22;9530;48.930;9.526;2022-08-19T09:18:48;21.40;99.90
18805;DHT22;9530;48.930;9.526;2022-08-19T09:21:18;21.40;99.90
18805;DHT22;9530;48.930;9.526;2022-08-19T09:23:45;21.40;99.90
18805;DHT22;9530;48.930;9.526;2022-08-19T09:26:17;21.40;99.90
18805;DHT22;9530;48.930;9.526;2022-08-19T09:28:47;21.30;99.90
18805;DHT22;9530;48.930;9.526;2022-08-19T09:31:18;21.20;99.90
18805;DHT22;9530;48.930;9.526;2022-08-19T09:33:45;21.30;99.90
18805;DHT22;9530;48.930;9.526;2022-08-19T09:36:14;21.30;99.90
18805;DHT22;9530;48.930;9.526;2022-08-19T09:38:42;21.30;99.90
18805;DHT22;9530;48.930;9.526;2022-08-19T09:41:12;21.10;99.90
18805;DHT22;9530;48.930;9.526;2022-08-19T09:43:40;21.20;99.90
18805;DHT22;9530;48.930;9.526;2022-08-19T09:46:08;21.10;99.90
18805;DHT22;9530;48.930;9.526;2022-08-19T09:48:37;21.10;99.90
18805;DHT22;9530;48.930;9.526;2022-08-19T09:51:05;21.20;99.90
18805;DHT22;9530;48.930;9.526;2022-08-19T09:53:32;21.10;99.90
18805;DHT22;9530;48.930;9.526;2022-08-19T09:55:58;21.00;99.90
18805;DHT22;9530;48.930;9.526;2022-08-19T09:58:25;21.20;99.90
18805;DHT22;9530;48.930;9.526;2022-08-19T10:00:53;21.30;99.90
18805;DHT22;9530;48.930;9.526;2022-08-19T10:03:20;21.50;99.90
18805;DHT22;9530;48.930;9.526;2022-08-19T10:05:48;21.60;99.90
18805;DHT22;9530;48.930;9.526;2022-08-19T10:08:16;21.90;99.90
18805;DHT22;9530;48.930;9.526;2022-08-19T10:10:44;22.10;99.90
18805;DHT22;9530;48.930;9.526;2022-08-19T10:13:12;22.30;99.90
18805;DHT22;9530;48.930;9.526;2022-08-19T10:15:39;22.50;99.90
18805;DHT22;9530;48.930;9.526;2022-08-19T10:18:07;22.60;99.90
18805;DHT22;9530;48.930;9.526;2022-08-19T10:20:34;22.80;99.90
18805;DHT22;9530;48.930;9.526;2022-08-19T10:23:04;23.00;99.90
18805;DHT22;9530;48.930;9.526;2022-08-19T10:25:32;22.90;99.90
18805;DHT22;9530;48.930;9.526;2022-08-19T10:27:59;22.80;99.90
18805;DHT22;9530;48.930;9.526;2022-08-19T10:30:25;22.70;99.90
18805;DHT22;9530;48.930;9.526;2022-08-19T10:32:53;22.70;99.90
18805;DHT22;9530;48.930;9.526;2022-08-19T10:35:19;22.50;99.90
18805;DHT22;9530;48.930;9.526;2022-08-19T10:37:46;22.60;99.90
18805;DHT22;9530;48.930;9.526;2022-08-19T10:40:14;22.60;99.90
18805;DHT22;9530;48.930;9.526;2022-08-19T10:42:41;22.50;99.90
18805;DHT22;9530;48.930;9.526;2022-08-19T10:45:08;22.60;99.90
18805;DHT22;9530;48.930;9.526;2022-08-19T10:47:35;22.50;99.90
18805;DHT22;9530;48.930;9.526;2022-08-19T10:50:03;22.40;99.90
18805;DHT22;9530;48.930;9.526;2022-08-19T10:52:49;22.30;99.90
18805;DHT22;9530;48.930;9.526;2022-08-19T10:55:19;22.20;99.90
18805;DHT22;9530;48.930;9.526;2022-08-19T10:58:08;22.10;99.90
18805;DHT22;9530;48.930;9.526;2022-08-19T11:00:35;21.90;99.90
18805;DHT22;9530;48.930;9.526;2022-08-19T11:03:02;21.70;99.90
18805;DHT22;9530;48.930;9.526;2022-08-19T11:05:29;21.60;99.90
18805;DHT22;9530;48.930;9.526;2022-08-19T11:07:55;21.50;99.90
18805;DHT22;9530;48.930;9.526;2022-08-19T11:10:23;21.40;99.90
18805;DHT22;9530;48.930;9.526;2022-08-19T11:12:50;21.40;99.90
18805;DHT22;9530;48.930;9.526;2022-08-19T11:15:19;21.40;99.90
18805;DHT22;9530;48.930;9.526;2022-08-19T11:17:46;21.30;99.90
18805;DHT22;9530;48.930;9.526;2022-08-19T11:20:14;21.20;99.90
18805;DHT22;9530;48.930;9.526;2022-08-19T11:22:41;21.20;99.90
18805;DHT22;9530;48.930;9.526;2022-08-19T11:25:10;21.20;99.90
18805;DHT22;9530;48.930;9.526;2022-08-19T11:27:39;21.10;99.90
18805;DHT22;9530;48.930;9.526;2022-08-19T11:30:09;21.10;99.90
18805;DHT22;9530;48.930;9.526;2022-08-19T11:32:36;21.20;99.90
18805;DHT22;9530;48.930;9.526;2022-08-19T11:35:03;21.10;99.90
18805;DHT22;9530;48.930;9.526;2022-08-19T11:37:30;21.10;99.90
18805;DHT22;9530;48.930;9.526;2022-08-19T11:39:57;21.10;99.90
18805;DHT22;9530;48.930;9.526;2022-08-19T11:42:25;21.10;99.90
18805;DHT22;9530;48.930;9.526;2022-08-19T11:45:11;21.10;99.90
18805;DHT22;9530;48.930;9.526;2022-08-19T11:47:39;21.20;99.90
18805;DHT22;9530;48.930;9.526;2022-08-19T11:50:06;21.10;99.90
18805;DHT22;9530;48.930;9.526;2022-08-19T11:52:33;21.10;99.90
18805;DHT22;9530;48.930;9.526;2022-08-19T11:55:00;21.10;99.90
18805;DHT22;9530;48.930;9.526;2022-08-19T11:57:26;21.10;99.90
18805;DHT22;9530;48.930;9.526;2022-08-19T11:59:53;21.10;99.90
18805;DHT22;9530;48.930;9.526;2022-08-19T12:02:21;21.20;99.90
18805;DHT22;9530;48.930;9.526;2022-08-19T12:04:48;21.20;99.90
18805;DHT22;9530;48.930;9.526;2022-08-19T12:07:15;21.20;99.90
18805;DHT22;9530;48.930;9.526;2022-08-19T12:09:42;21.20;99.90
18805;DHT22;9530;48.930;9.526;2022-08-19T12:12:09;21.20;99.90
18805;DHT22;9530;48.930;9.526;2022-08-19T12:14:36;21.20;99.90
18805;DHT22;9530;48.930;9.526;2022-08-19T12:17:03;21.20;99.90
18805;DHT22;9530;48.930;9.526;2022-08-19T12:19:33;21.30;99.90
18805;DHT22;9530;48.930;9.526;2022-08-19T12:22:00;21.30;99.90
18805;DHT22;9530;48.930;9.526;2022-08-19T12:24:30;21.20;99.90
18805;DHT22;9530;48.930;9.526;2022-08-19T12:26:57;21.30;99.90
18805;DHT22;9530;48.930;9.526;2022-08-19T12:29:27;21.20;99.90
18805;DHT22;9530;48.930;9.526;2022-08-19T12:31:55;21.20;99.90
18805;DHT22;9530;48.930;9.526;2022-08-19T12:34:25;21.20;99.90
18805;DHT22;9530;48.930;9.526;2022-08-19T12:36:56;21.20;99.90
18805;DHT22;9530;48.930;9.526;2022-08-19T12:39:23;21.20;99.90
18805;DHT22;9530;48.930;9.526;2022-08-19T12:41:50;21.40;99.90
18805;DHT22;9530;48.930;9.526;2022-08-19T12:44:17;21.50;99.90
18805;DHT22;9530;48.930;9.526;2022-08-19T12:46:44;21.50;99.90
18805;DHT22;9530;48.930;9.526;2022-08-19T12:49:10;21.50;99.90
18805;DHT22;9530;48.930;9.526;2022-08-19T12:51:37;21.50;99.90
18805;DHT22;9530;48.930;9.526;2022-08-19T12:54:05;21.60;99.90
18805;DHT22;9530;48.930;9.526;2022-08-19T12:56:32;21.60;99.90
18805;DHT22;9530;48.930;9.526;2022-08-19T12:59:01;21.60;99.90
18805;DHT22;9530;48.930;9.526;2022-08-19T13:01:27;21.70;99.90
18805;DHT22;9530;48.930;9.526;2022-08-19T13:03:55;21.70;99.90
18805;DHT22;9530;48.930;9.526;2022-08-19T13:06:22;21.60;99.90
18805;DHT22;9530;48.930;9.526;2022-08-19T13:08:49;21.70;99.90
18805;DHT22;9530;48.930;9.526;2022-08-19T13:11:19;21.60;99.90
18805;DHT22;9530;48.930;9.526;2022-08-19T13:13:48;21.60;99.90
18805;DHT22;9530;48.930;9.526;2022-08-19T13:16:17;21.60;99.90
18805;DHT22;9530;48.930;9.526;2022-08-19T13:18:45;21.60;99.90
18805;DHT22;9530;48.930;9.526;2022-08-19T13:21:12;21.60;99.90
18805;DHT22;9530;48.930;9.526;2022-08-19T13:23:40;21.60;99.90
18805;DHT22;9530;48.930;9.526;2022-08-19T13:26:08;21.60;99.90
18805;DHT22;9530;48.930;9.526;2022-08-19T13:28:36;21.60;99.90
18805;DHT22;9530;48.930;9.526;2022-08-19T13:31:22;21.70;99.90
18805;DHT22;9530;48.930;9.526;2022-08-19T13:34:07;21.90;99.90
18805;DHT22;9530;48.930;9.526;2022-08-19T13:36:34;22.00;99.90
18805;DHT22;9530;48.930;9.526;2022-08-19T13:39:01;22.10;99.90
18805;DHT22;9530;48.930;9.526;2022-08-19T13:41:28;22.10;99.90
18805;DHT22;9530;48.930;9.526;2022-08-19T13:43:56;22.20;99.90
18805;DHT22;9530;48.930;9.526;2022-08-19T13:46:23;22.30;99.90
18805;DHT22;9530;48.930;9.526;2022-08-19T13:48:50;22.30;99.90
18805;DHT22;9530;48.930;9.526;2022-08-19T13:51:17;22.50;99.90
18805;DHT22;9530;48.930;9.526;2022-08-19T13:53:44;22.50;99.90
18805;DHT22;9530;48.930;9.526;2022-08-19T13:56:18;22.50;99.90
18805;DHT22;9530;48.930;9.526;2022-08-19T13:58:45;22.50;99.90
18805;DHT22;9530;48.930;9.526;2022-08-19T14:01:19;22.60;99.90
18805;DHT22;9530;48.930;9.526;2022-08-19T14:03:45;22.50;99.90
18805;DHT22;9530;48.930;9.526;2022-08-19T14:06:12;22.60;99.90
18805;DHT22;9530;48.930;9.526;2022-08-19T14:08:39;22.70;99.90
18805;DHT22;9530;48.930;9.526;2022-08-19T14:11:07;22.80;99.90
18805;DHT22;9530;48.930;9.526;2022-08-19T14:13:33;22.80;99.90
18805;DHT22;9530;48.930;9.526;2022-08-19T14:16:00;22.80;99.90
18805;DHT22;9530;48.930;9.526;2022-08-19T14:18:28;22.90;99.90
18805;DHT22;9530;48.930;9.526;2022-08-19T14:20:55;22.80;99.90
18805;DHT22;9530;48.930;9.526;2022-08-19T14:23:22;22.70;99.90
18805;DHT22;9530;48.930;9.526;2022-08-19T14:25:49;22.60;99.90
18805;DHT22;9530;48.930;9.526;2022-08-19T14:28:16;22.50;99.90
18805;DHT22;9530;48.930;9.526;2022-08-19T14:30:43;22.60;99.90
18805;DHT22;9530;48.930;9.526;2022-08-19T14:33:10;22.60;99.90
18805;DHT22;9530;48.930;9.526;2022-08-19T14:35:38;22.50;99.90
18805;DHT22;9530;48.930;9.526;2022-08-19T14:38:15;22.60;99.90
18805;DHT22;9530;48.930;9.526;2022-08-19T14:40:42;22.60;99.90
18805;DHT22;9530;48.930;9.526;2022-08-19T14:43:09;22.50;99.90
18805;DHT22;9530;48.930;9.526;2022-08-19T14:45:37;22.80;99.90
18805;DHT22;9530;48.930;9.526;2022-08-19T14:48:05;23.00;99.90
18805;DHT22;9530;48.930;9.526;2022-08-19T14:50:33;22.90;99.90
18805;DHT22;9530;48.930;9.526;2022-08-19T14:53:07;23.00;99.90
18805;DHT22;9530;48.930;9.526;2022-08-19T14:55:34;23.10;99.90
18805;DHT22;9530;48.930;9.526;2022-08-19T14:58:01;23.00;99.90
18805;DHT22;9530;48.930;9.526;2022-08-19T15:00:28;22.80;99.90
18805;DHT22;9530;48.930;9.526;2022-08-19T15:02:55;22.50;99.90
18805;DHT22;9530;48.930;9.526;2022-08-19T15:05:22;22.60;99.90
18805;DHT22;9530;48.930;9.526;2022-08-19T15:07:48;22.70;99.90
18805;DHT22;9530;48.930;9.526;2022-08-19T15:10:16;22.60;99.90
18805;DHT22;9530;48.930;9.526;2022-08-19T15:12:43;22.40;99.90
18805;DHT22;9530;48.930;9.526;2022-08-19T15:15:12;22.20;99.90
18805;DHT22;9530;48.930;9.526;2022-08-19T15:17:39;22.10;99.90
18805;DHT22;9530;48.930;9.526;2022-08-19T15:20:07;21.90;99.90
18805;DHT22;9530;48.930;9.526;2022-08-19T15:22:35;21.60;99.90
18805;DHT22;9530;48.930;9.526;2022-08-19T15:25:03;21.40;99.90
18805;DHT22;9530;48.930;9.526;2022-08-19T15:27:31;21.40;99.90
18805;DHT22;9530;48.930;9.526;2022-08-19T15:29:58;21.30;99.90
18805;DHT22;9530;48.930;9.526;2022-08-19T15:32:25;21.10;99.90
18805;DHT22;9530;48.930;9.526;2022-08-19T15:34:52;21.00;99.90
18805;DHT22;9530;48.930;9.526;2022-08-19T15:37:19;21.00;99.90
18805;DHT22;9530;48.930;9.526;2022-08-19T15:39:47;20.80;99.90
18805;DHT22;9530;48.930;9.526;2022-08-19T15:42:14;20.70;99.90
18805;DHT22;9530;48.930;9.526;2022-08-19T15:44:42;20.70;99.90
18805;DHT22;9530;48.930;9.526;2022-08-19T15:47:08;20.70;99.90
18805;DHT22;9530;48.930;9.526;2022-08-19T15:49:35;20.60;99.90
18805;DHT22;9530;48.930;9.526;2022-08-19T15:52:03;20.70;99.90